CNK2 weather

CLOSED Kincardine (Ellis Field) Airport
Kincardine, Ontario, Canada

Public forecast

Using degrees Celsius for public forecast. Weather courtesy of forecast.io.

METAR (pilot weather report)

Closest report is Wiarton Airport, 37.6 nm (69.6 km) NNE. Retrieved 2019/07/17 11:00 UTC (37 minutes ago):

CYVV 171100Z 36002KT 1/8SM FG VV001 19/19 A2990 RMK FG8 WND ESTD SLP123 DENSITY ALT 1500FT

TAF (pilot weather forecast)

Forecast is more than 12 hours old.

Closest forecast is Wiarton Airport, 37.6 nm (69.6 km) NNE. Retrieved 2019/07/16 20:00 UTC (16 hours ago):

TAF CYVV 161938Z 1620/1623 23012G22KT P6SM BKN050 TEMPO 1620/1623 P6SM -SHRA BKN020 BKN050 BECMG 1621/1623 23012KT RMK NXT FCST WILL BE ISSUED AT 171045Z